Time;durP1;ratioP1;P1;durP2;ratioP2;P2;SDS_P1;SDS_P2;PMS_P1;PMS_P2;Temp;Humidity;BMP_temperature;BMP_pressure;BME280_temperature;BME280_humidity;BME280_pressure;Samples;Min_cycle;Max_cycle;Signal;HPM_P1;HPM_P2
2024/03/14 00:00:42;;;;;;;0.00;0.00;;;21.50;46.40;;;;;;4991301;28;20227;-46
2024/03/14 00:03:12;;;;;;;0.10;0.10;;;21.60;46.50;;;;;;4992182;28;20197;-49
2024/03/14 00:05:41;;;;;;;0.08;0.08;;;21.60;46.80;;;;;;4977103;28;20229;-51
2024/03/14 00:08:11;;;;;;;0.10;0.10;;;21.70;46.60;;;;;;4987588;28;20205;-47
2024/03/14 00:10:41;;;;;;;0.10;0.10;;;21.70;46.60;;;;;;4986842;28;20205;-50
2024/03/14 00:13:11;;;;;;;0.08;0.08;;;21.80;46.70;;;;;;4991338;28;20219;-54
2024/03/14 00:15:42;;;;;;;0.10;0.10;;;21.80;46.80;;;;;;4991302;28;20208;-50
2024/03/14 00:18:11;;;;;;;0.00;0.00;;;21.80;46.70;;;;;;4991596;28;20197;-52
2024/03/14 00:20:42;;;;;;;0.00;0.00;;;21.90;46.70;;;;;;4990361;28;20228;-48
2024/03/14 00:23:12;;;;;;;0.00;0.00;;;21.90;46.70;;;;;;4991001;28;20289;-51
2024/03/14 00:25:42;;;;;;;0.10;0.10;;;22.00;46.70;;;;;;4991606;28;20208;-48
2024/03/14 00:28:12;;;;;;;0.10;0.10;;;22.00;46.70;;;;;;4991308;28;20213;-47
2024/03/14 00:30:42;;;;;;;0.10;0.10;;;22.00;46.70;;;;;;4991554;28;20200;-48
2024/03/14 00:33:12;;;;;;;0.00;0.00;;;22.10;46.80;;;;;;4991003;28;20212;-48
2024/03/14 00:35:41;;;;;;;0.00;0.00;;;22.10;46.80;;;;;;4991565;28;20197;-47
2024/03/14 00:38:11;;;;;;;0.00;0.00;;;22.20;47.00;;;;;;4991190;28;20440;-47
2024/03/14 00:40:41;;;;;;;0.10;0.10;;;22.20;46.90;;;;;;4990315;28;20247;-47
2024/03/14 00:43:10;;;;;;;0.10;0.10;;;22.20;46.90;;;;;;4990674;28;20205;-48
2024/03/14 00:45:40;;;;;;;0.10;0.10;;;22.30;47.00;;;;;;4989726;28;20213;-46
2024/03/14 00:48:10;;;;;;;0.00;0.00;;;22.20;46.90;;;;;;4990402;28;20614;-47
2024/03/14 00:50:41;;;;;;;0.00;0.00;;;22.30;46.90;;;;;;4990205;28;20240;-47
2024/03/14 00:53:11;;;;;;;0.10;0.10;;;22.30;46.90;;;;;;4990463;28;20208;-47
2024/03/14 00:55:41;;;;;;;0.00;0.00;;;22.40;46.90;;;;;;4990879;28;20306;-47
2024/03/14 00:58:10;;;;;;;0.00;0.00;;;22.40;46.90;;;;;;4991207;28;20617;-50
2024/03/14 01:00:40;;;;;;;0.00;0.00;;;22.40;46.80;;;;;;4986498;28;20218;-54
2024/03/14 01:03:10;;;;;;;0.00;0.00;;;22.40;46.70;;;;;;4984063;28;20232;-52
2024/03/14 01:05:40;;;;;;;0.10;0.10;;;22.50;46.70;;;;;;4988093;28;20203;-48
2024/03/14 01:08:10;;;;;;;0.00;0.00;;;22.50;46.80;;;;;;4990023;28;20215;-57
2024/03/14 01:10:40;;;;;;;0.10;0.10;;;22.50;46.70;;;;;;4985864;28;20202;-46
2024/03/14 01:13:12;;;;;;;0.00;0.00;;;22.60;46.70;;;;;;4989960;28;20625;-48
2024/03/14 01:15:42;;;;;;;0.00;0.00;;;22.60;46.60;;;;;;4990745;28;20200;-49
2024/03/14 01:18:11;;;;;;;0.08;0.08;;;22.60;46.50;;;;;;4990657;28;20208;-47
2024/03/14 01:20:41;;;;;;;0.00;0.00;;;22.60;46.50;;;;;;4989857;28;20303;-50
2024/03/14 01:23:11;;;;;;;0.10;0.10;;;22.60;46.60;;;;;;4990936;28;20580;-50
2024/03/14 01:25:41;;;;;;;0.10;0.10;;;22.60;46.50;;;;;;5003014;23;20216;-48
2024/03/14 01:28:11;;;;;;;0.00;0.00;;;22.60;46.60;;;;;;5009996;28;20709;-46
2024/03/14 01:30:42;;;;;;;0.10;0.10;;;22.60;46.60;;;;;;5009985;28;20290;-48
2024/03/14 01:33:11;;;;;;;0.10;0.10;;;22.70;46.70;;;;;;5009976;28;20318;-47
2024/03/14 01:35:41;;;;;;;0.00;0.00;;;22.70;46.70;;;;;;5009813;28;20204;-47
2024/03/14 01:38:11;;;;;;;0.00;0.00;;;22.80;46.70;;;;;;5010037;28;20203;-49
2024/03/14 01:40:40;;;;;;;0.08;0.08;;;22.70;46.70;;;;;;5009408;28;20656;-47
2024/03/14 01:43:10;;;;;;;0.10;0.10;;;22.70;46.70;;;;;;5010462;28;20199;-45
2024/03/14 01:45:40;;;;;;;0.10;0.10;;;22.80;46.70;;;;;;5009373;28;20200;-45
2024/03/14 01:48:09;;;;;;;0.08;0.08;;;22.80;46.80;;;;;;5009739;28;20196;-49
2024/03/14 01:50:39;;;;;;;0.00;0.00;;;22.80;46.70;;;;;;5009995;28;20200;-49
2024/03/14 01:53:10;;;;;;;0.10;0.10;;;22.90;46.70;;;;;;5009709;28;20204;-49
2024/03/14 01:55:39;;;;;;;0.00;0.00;;;22.90;46.60;;;;;;5010619;28;20235;-49
2024/03/14 01:58:09;;;;;;;0.10;0.10;;;22.90;46.50;;;;;;5009659;28;20196;-48
2024/03/14 02:00:39;;;;;;;0.00;0.00;;;22.90;46.50;;;;;;5009667;28;20204;-46
2024/03/14 02:03:09;;;;;;;0.00;0.00;;;22.90;46.40;;;;;;5006413;28;20707;-46
2024/03/14 02:05:39;;;;;;;0.10;0.10;;;22.90;46.40;;;;;;4989910;28;20208;-50
2024/03/14 02:08:09;;;;;;;0.10;0.10;;;22.90;46.40;;;;;;4990629;28;20715;-46
2024/03/14 02:10:39;;;;;;;0.10;0.10;;;22.90;46.40;;;;;;4990047;28;20205;-46
2024/03/14 02:13:10;;;;;;;0.00;0.00;;;23.00;46.40;;;;;;5008941;28;20755;-49
2024/03/14 02:15:39;;;;;;;0.00;0.00;;;23.00;46.40;;;;;;5007199;28;20193;-50
2024/03/14 02:18:09;;;;;;;0.10;0.10;;;23.00;46.40;;;;;;4994611;28;20705;-46
2024/03/14 02:20:39;;;;;;;0.10;0.10;;;23.00;46.40;;;;;;4997578;28;20224;-47
2024/03/14 02:23:09;;;;;;;0.00;0.00;;;23.00;46.50;;;;;;4997673;28;20233;-44
2024/03/14 02:25:39;;;;;;;0.05;0.05;;;23.00;46.50;;;;;;5022595;23;20196;-48
2024/03/14 02:28:08;;;;;;;0.10;0.10;;;23.00;46.50;;;;;;4996468;28;20266;-50
2024/03/14 02:30:39;;;;;;;0.00;0.00;;;23.00;46.50;;;;;;4996980;28;20204;-47
2024/03/14 02:33:09;;;;;;;0.00;0.00;;;23.00;46.50;;;;;;4997124;28;20736;-51
2024/03/14 02:35:39;;;;;;;0.10;0.10;;;23.00;46.50;;;;;;4991433;28;20196;-47
2024/03/14 02:38:09;;;;;;;0.10;0.10;;;23.10;46.50;;;;;;4992365;28;20232;-48
2024/03/14 02:40:39;;;;;;;0.00;0.00;;;23.10;46.60;;;;;;4990783;28;20240;-50
2024/03/14 02:43:08;;;;;;;0.00;0.00;;;23.10;46.60;;;;;;4973972;28;20225;-48
2024/03/14 02:45:39;;;;;;;0.10;0.10;;;23.10;46.50;;;;;;4973316;28;20863;-48
2024/03/14 02:48:08;;;;;;;0.00;0.00;;;23.20;46.60;;;;;;4979455;28;20207;-47
2024/03/14 02:50:38;;;;;;;0.00;0.00;;;23.20;46.60;;;;;;4991982;28;20201;-49
2024/03/14 02:53:08;;;;;;;0.10;0.10;;;23.20;46.50;;;;;;4989601;28;20205;-49
2024/03/14 02:55:37;;;;;;;0.00;0.00;;;23.20;46.50;;;;;;4988580;28;20208;-47
2024/03/14 02:58:07;;;;;;;0.00;0.00;;;23.20;46.50;;;;;;4993474;28;20668;-48
2024/03/14 03:00:38;;;;;;;0.00;0.00;;;23.30;46.60;;;;;;4993672;28;20204;-55
2024/03/14 03:03:08;;;;;;;0.00;0.00;;;23.30;46.60;;;;;;4992791;28;20229;-49
2024/03/14 03:05:38;;;;;;;0.00;0.00;;;23.30;46.60;;;;;;4992389;28;20291;-53
2024/03/14 03:08:08;;;;;;;0.00;0.00;;;23.20;46.50;;;;;;4990477;28;20661;-48
2024/03/14 03:10:36;;;;;;;0.00;0.00;;;23.30;46.50;;;;;;4992834;28;20660;-51
2024/03/14 03:13:06;;;;;;;0.10;0.10;;;23.30;46.50;;;;;;4993440;28;20212;-48
2024/03/14 03:15:35;;;;;;;0.00;0.00;;;23.30;46.50;;;;;;4992163;28;20200;-48
2024/03/14 03:18:07;;;;;;;0.00;0.00;;;23.30;46.60;;;;;;4992744;28;20209;-48
2024/03/14 03:20:38;;;;;;;0.10;0.10;;;23.30;46.60;;;;;;4992259;28;20201;-50
2024/03/14 03:23:08;;;;;;;0.00;0.00;;;23.40;46.60;;;;;;4992379;28;20322;-51
2024/03/14 03:25:36;;;;;;;0.00;0.00;;;23.40;46.60;;;;;;4992567;28;20224;-49
2024/03/14 03:28:09;;;;;;;0.10;0.10;;;23.40;46.60;;;;;;4991710;28;20203;-54
2024/03/14 03:30:38;;;;;;;0.00;0.00;;;23.40;46.60;;;;;;4989042;28;20225;-53
2024/03/14 03:33:11;;;;;;;0.00;0.00;;;23.50;46.60;;;;;;4991621;28;20223;-51
2024/03/14 03:35:42;;;;;;;0.00;0.00;;;23.50;46.60;;;;;;4993246;28;20197;-49
2024/03/14 03:38:10;;;;;;;0.00;0.00;;;23.50;46.60;;;;;;4991796;28;20219;-49
2024/03/14 03:40:39;;;;;;;0.05;0.05;;;23.50;46.60;;;;;;4991986;28;20228;-49
2024/03/14 03:43:08;;;;;;;0.10;0.10;;;23.50;46.50;;;;;;4991872;28;20229;-56
2024/03/14 03:45:37;;;;;;;0.00;0.00;;;23.50;46.50;;;;;;4991526;28;20279;-52
2024/03/14 03:48:06;;;;;;;0.00;0.00;;;23.60;46.50;;;;;;4992034;28;20275;-50
2024/03/14 03:50:36;;;;;;;0.00;0.00;;;23.60;46.50;;;;;;4992348;28;20263;-53
2024/03/14 03:53:04;;;;;;;0.10;0.10;;;23.60;46.50;;;;;;4991399;28;20216;-51
2024/03/14 03:55:34;;;;;;;0.10;0.10;;;23.60;46.40;;;;;;4991694;28;20247;-47
2024/03/14 03:58:02;;;;;;;0.00;0.00;;;23.70;46.40;;;;;;4992284;28;20798;-49
2024/03/14 04:00:44;;;;;;;0.00;0.00;;;23.70;46.30;;;;;;4991253;28;20197;-47
2024/03/14 04:03:12;;;;;;;0.10;0.10;;;23.70;46.40;;;;;;4993820;28;20794;-47
2024/03/14 04:05:42;;;;;;;0.03;0.03;;;23.70;46.30;;;;;;4991144;28;20291;-49
2024/03/14 04:08:10;;;;;;;0.03;0.03;;;23.70;46.30;;;;;;4992173;28;20575;-47
2024/03/14 04:10:40;;;;;;;0.00;0.00;;;23.80;46.30;;;;;;4991904;28;20255;-46
2024/03/14 04:13:11;;;;;;;0.00;0.00;;;23.80;46.40;;;;;;4991797;28;20201;-48
2024/03/14 04:15:41;;;;;;;0.00;0.00;;;23.80;46.40;;;;;;4991895;28;20193;-50
2024/03/14 04:18:11;;;;;;;0.00;0.00;;;23.80;46.30;;;;;;4991016;28;20197;-47
2024/03/14 04:20:40;;;;;;;0.00;0.00;;;23.80;46.30;;;;;;4991302;28;20204;-54
2024/03/14 04:23:10;;;;;;;0.00;0.00;;;23.90;46.40;;;;;;4990040;28;20236;-48
2024/03/14 04:28:08;;;;;;;0.00;0.00;;;23.90;46.20;;;;;;5006899;28;20699;-49
2024/03/14 04:30:39;;;;;;;0.00;0.00;;;23.90;46.20;;;;;;5007130;28;20288;-48
2024/03/14 04:33:12;;;;;;;0.00;0.00;;;24.00;46.30;;;;;;5011452;28;20200;-50
2024/03/14 04:35:42;;;;;;;0.00;0.00;;;24.00;46.20;;;;;;5010547;28;20218;-47
2024/03/14 04:38:12;;;;;;;0.00;0.00;;;24.00;46.10;;;;;;5010110;28;20196;-50
2024/03/14 04:40:43;;;;;;;0.00;0.00;;;24.10;46.10;;;;;;5009468;28;20208;-47
2024/03/14 04:43:13;;;;;;;0.00;0.00;;;24.10;46.00;;;;;;5011101;28;20227;-52
2024/03/14 04:45:44;;;;;;;0.05;0.05;;;24.10;46.00;;;;;;5010671;28;20224;-46
2024/03/14 04:48:16;;;;;;;0.05;0.05;;;24.20;46.00;;;;;;5011826;28;20215;-49
2024/03/14 04:50:46;;;;;;;0.00;0.00;;;24.20;46.60;;;;;;5010496;28;20200;-46
2024/03/14 04:53:16;;;;;;;0.00;0.00;;;24.20;45.90;;;;;;5010725;28;20262;-50
2024/03/14 04:55:47;;;;;;;0.00;0.00;;;24.20;45.90;;;;;;4991173;28;20258;-55
2024/03/14 04:58:17;;;;;;;0.00;0.00;;;24.20;45.80;;;;;;4990641;28;20204;-55
2024/03/14 05:00:47;;;;;;;0.00;0.00;;;24.30;45.80;;;;;;4989942;28;20199;-58
2024/03/14 05:03:17;;;;;;;0.00;0.00;;;24.30;45.80;;;;;;4990799;28;20236;-55
2024/03/14 05:05:46;;;;;;;0.00;0.00;;;24.30;45.80;;;;;;4971402;28;20202;-51
2024/03/14 05:08:16;;;;;;;0.00;0.00;;;24.40;45.70;;;;;;4971091;28;20216;-56
2024/03/14 05:10:46;;;;;;;0.00;0.00;;;24.40;45.70;;;;;;4970875;28;20202;-51
2024/03/14 05:13:15;;;;;;;0.00;0.00;;;24.50;45.80;;;;;;4975811;28;20197;-50
2024/03/14 05:15:45;;;;;;;0.00;0.00;;;24.50;45.70;;;;;;5006456;28;20197;-54
2024/03/14 05:18:15;;;;;;;0.00;0.00;;;24.50;45.70;;;;;;4992878;28;20260;-58
2024/03/14 05:20:45;;;;;;;0.00;0.00;;;24.60;45.70;;;;;;4971174;28;20205;-53
2024/03/14 05:23:15;;;;;;;0.00;0.00;;;24.60;45.70;;;;;;4971309;28;20239;-50
2024/03/14 05:25:45;;;;;;;0.00;0.00;;;24.70;45.70;;;;;;4986263;28;20644;-54
2024/03/14 05:28:16;;;;;;;0.00;0.00;;;24.70;45.60;;;;;;5006520;28;20205;-55
2024/03/14 05:30:46;;;;;;;0.00;0.00;;;24.70;45.60;;;;;;4995350;28;20324;-52
2024/03/14 05:33:15;;;;;;;0.00;0.00;;;24.70;45.60;;;;;;4971110;28;20197;-54
2024/03/14 05:35:46;;;;;;;0.00;0.00;;;24.70;45.50;;;;;;4971322;28;20197;-53
2024/03/14 05:38:16;;;;;;;0.00;0.00;;;24.70;45.50;;;;;;4971249;28;20237;-53
2024/03/14 05:40:45;;;;;;;0.03;0.03;;;24.80;45.60;;;;;;4976960;28;20205;-53
2024/03/14 05:43:15;;;;;;;0.00;0.00;;;24.80;45.50;;;;;;4993136;28;20224;-54
2024/03/14 05:45:45;;;;;;;0.00;0.00;;;24.80;45.50;;;;;;5010093;28;20218;-55
2024/03/14 05:48:15;;;;;;;0.00;0.00;;;24.80;45.40;;;;;;5010389;28;20211;-53
2024/03/14 05:50:45;;;;;;;0.10;0.10;;;24.80;45.40;;;;;;5010316;28;20656;-51
2024/03/14 05:53:15;;;;;;;0.00;0.00;;;24.80;45.50;;;;;;5012459;28;20210;-53
2024/03/14 05:55:45;;;;;;;0.00;0.00;;;24.80;45.40;;;;;;5000302;28;20255;-55
2024/03/14 05:58:14;;;;;;;0.10;0.10;;;24.90;45.40;;;;;;5014487;28;20192;-49
2024/03/14 06:00:44;;;;;;;0.00;0.00;;;24.90;45.40;;;;;;5014197;28;20250;-47
2024/03/14 06:03:14;;;;;;;0.00;0.00;;;24.90;45.30;;;;;;5014323;28;20228;-51
2024/03/14 06:05:43;;;;;;;0.00;0.00;;;24.90;45.30;;;;;;5013691;28;20254;-56
2024/03/14 06:08:13;;;;;;;0.00;0.00;;;24.90;45.40;;;;;;5014086;28;20679;-52
2024/03/14 06:10:43;;;;;;;0.00;0.00;;;24.90;45.30;;;;;;5012837;28;20196;-52
2024/03/14 06:13:12;;;;;;;0.00;0.00;;;24.90;45.30;;;;;;5014202;28;20212;-49
2024/03/14 06:15:42;;;;;;;0.00;0.00;;;25.00;45.30;;;;;;5006300;28;20204;-51
2024/03/14 06:18:12;;;;;;;0.00;0.00;;;25.00;45.30;;;;;;4974005;28;20201;-58
2024/03/14 06:20:42;;;;;;;0.10;0.10;;;25.00;45.30;;;;;;4975054;28;20197;-51
2024/03/14 06:23:12;;;;;;;0.00;0.00;;;25.00;45.30;;;;;;4996499;28;20227;-55
2024/03/14 06:25:41;;;;;;;0.00;0.00;;;25.00;45.20;;;;;;4999443;28;20204;-51
2024/03/14 06:28:11;;;;;;;0.00;0.00;;;25.00;45.10;;;;;;4993313;28;20457;-50
2024/03/14 06:30:41;;;;;;;0.00;0.00;;;25.00;45.10;;;;;;4996747;28;20201;-47
2024/03/14 06:33:10;;;;;;;0.00;0.00;;;25.00;45.00;;;;;;4993126;28;20216;-49
2024/03/14 06:35:40;;;;;;;0.00;0.00;;;25.00;44.90;;;;;;4995356;28;20774;-53
2024/03/14 06:38:10;;;;;;;0.00;0.00;;;25.00;44.90;;;;;;5013587;28;20600;-55
2024/03/14 06:40:39;;;;;;;0.00;0.00;;;25.00;44.90;;;;;;5012746;28;20204;-54
2024/03/14 06:43:09;;;;;;;0.00;0.00;;;25.00;44.90;;;;;;5013331;28;20228;-49
2024/03/14 06:45:40;;;;;;;0.00;0.00;;;25.00;44.90;;;;;;5013447;28;20208;-49
2024/03/14 06:48:10;;;;;;;0.00;0.00;;;25.00;44.90;;;;;;4996860;28;20820;-50
2024/03/14 06:50:39;;;;;;;0.08;0.08;;;24.90;44.90;;;;;;5011043;28;20287;-52
2024/03/14 06:53:09;;;;;;;0.00;0.00;;;24.90;44.90;;;;;;4995807;28;20679;-51
2024/03/14 06:55:39;;;;;;;0.10;0.10;;;24.90;44.80;;;;;;4988981;28;20205;-53
2024/03/14 06:58:09;;;;;;;0.00;0.00;;;24.90;44.80;;;;;;4973962;28;20205;-47
2024/03/14 07:00:40;;;;;;;0.00;0.00;;;24.90;44.80;;;;;;4973973;28;20201;-49
2024/03/14 07:03:09;;;;;;;0.00;0.00;;;24.90;44.70;;;;;;4984735;28;20283;-47
2024/03/14 07:05:39;;;;;;;0.00;0.00;;;24.90;44.60;;;;;;5011520;28;20251;-50
2024/03/14 07:08:11;;;;;;;0.00;0.00;;;24.90;44.50;;;;;;5012321;28;20644;-47
2024/03/14 07:10:41;;;;;;;0.00;0.00;;;24.90;44.40;;;;;;5012603;28;20339;-49
2024/03/14 07:13:12;;;;;;;0.00;0.00;;;24.90;44.30;;;;;;5009483;28;21060;-48
2024/03/14 07:15:42;;;;;;;0.00;0.00;;;24.90;44.30;;;;;;4996784;28;20231;-51
2024/03/14 07:18:11;;;;;;;0.00;0.00;;;24.80;44.20;;;;;;4995992;28;20201;-55
2024/03/14 07:20:44;;;;;;;0.00;0.00;;;24.80;44.10;;;;;;4996840;28;20196;-49
2024/03/14 07:23:15;;;;;;;0.00;0.00;;;24.80;44.10;;;;;;4995488;28;20319;-47
2024/03/14 07:28:19;;;;;;;0.00;0.00;;;24.70;44.00;;;;;;4992249;28;20248;-57
2024/03/14 07:30:48;;;;;;;0.00;0.00;;;24.70;44.00;;;;;;4979033;28;20201;-51
2024/03/14 07:33:18;;;;;;;0.00;0.00;;;24.70;44.00;;;;;;4995966;28;20564;-52
2024/03/14 07:35:48;;;;;;;0.10;0.10;;;24.70;44.00;;;;;;4996209;28;20725;-53
2024/03/14 07:38:21;;;;;;;0.00;0.00;;;24.70;44.00;;;;;;4995956;28;20201;-53
2024/03/14 07:40:50;;;;;;;0.10;0.10;;;24.60;43.90;;;;;;4996363;28;20300;-54
2024/03/14 07:43:20;;;;;;;0.00;0.00;;;24.60;43.90;;;;;;4995555;28;20228;-55
2024/03/14 07:45:50;;;;;;;0.00;0.00;;;24.60;43.90;;;;;;4996422;28;20208;-57
2024/03/14 07:48:21;;;;;;;0.00;0.00;;;24.60;43.90;;;;;;4995709;28;20197;-54
2024/03/14 07:50:51;;;;;;;0.00;0.00;;;24.60;43.90;;;;;;4996314;28;20754;-55
2024/03/14 07:53:21;;;;;;;0.00;0.00;;;24.50;43.80;;;;;;4995781;28;20197;-55
2024/03/14 07:55:51;;;;;;;0.00;0.00;;;24.50;44.30;;;;;;4995815;28;20569;-53
2024/03/14 07:58:21;;;;;;;0.00;0.00;;;24.50;43.70;;;;;;4995539;28;20236;-53
2024/03/14 08:00:50;;;;;;;0.00;0.00;;;24.50;43.60;;;;;;4995672;28;20225;-51
2024/03/14 08:03:20;;;;;;;0.00;0.00;;;24.50;43.60;;;;;;4995341;28;20224;-50
2024/03/14 08:05:50;;;;;;;0.00;0.00;;;24.50;43.50;;;;;;4995473;28;20255;-56
2024/03/14 08:08:20;;;;;;;0.00;0.00;;;24.40;43.40;;;;;;4995303;28;20259;-53
2024/03/14 08:10:50;;;;;;;0.10;0.10;;;24.40;43.40;;;;;;4995111;28;20197;-55
2024/03/14 08:13:20;;;;;;;0.00;0.00;;;24.40;43.40;;;;;;4993820;28;20653;-52
2024/03/14 08:15:54;;;;;;;0.00;0.00;;;24.30;43.30;;;;;;4977408;28;20201;-53
2024/03/14 08:18:24;;;;;;;0.00;0.00;;;24.30;43.30;;;;;;4974490;28;20327;-54
2024/03/14 08:20:55;;;;;;;0.00;0.00;;;24.30;43.30;;;;;;4987673;28;20217;-50
2024/03/14 08:23:25;;;;;;;0.10;0.10;;;24.30;43.30;;;;;;4986794;28;20260;-49
2024/03/14 08:25:55;;;;;;;0.00;0.00;;;24.20;43.20;;;;;;4991811;28;20204;-51
2024/03/14 08:28:25;;;;;;;0.08;0.08;;;24.20;43.30;;;;;;4987755;28;20201;-50
2024/03/14 08:30:55;;;;;;;0.00;0.00;;;24.20;43.30;;;;;;4970611;28;20222;-53
2024/03/14 08:33:25;;;;;;;0.00;0.00;;;24.20;43.30;;;;;;4986144;28;20235;-55
2024/03/14 08:35:54;;;;;;;0.00;0.00;;;24.20;43.20;;;;;;4991488;28;20319;-51
2024/03/14 08:38:24;;;;;;;0.00;0.00;;;24.10;43.20;;;;;;4990086;28;20244;-57
2024/03/14 08:40:54;;;;;;;0.00;0.00;;;24.10;43.20;;;;;;4986115;28;20271;-53
2024/03/14 08:43:23;;;;;;;0.00;0.00;;;24.10;43.30;;;;;;4990825;28;20722;-53
2024/03/14 08:45:53;;;;;;;0.00;0.00;;;24.10;43.20;;;;;;4983260;28;20205;-55
2024/03/14 08:48:23;;;;;;;0.00;0.00;;;24.00;43.10;;;;;;4971915;28;20193;-56
2024/03/14 08:50:52;;;;;;;0.03;0.03;;;24.00;43.10;;;;;;4981035;28;20221;-54
2024/03/14 08:53:22;;;;;;;0.05;0.05;;;24.00;43.10;;;;;;4978520;28;20201;-57
2024/03/14 08:55:56;;;;;;;0.08;0.08;;;24.00;43.00;;;;;;4991077;28;20665;-52
2024/03/14 08:58:25;;;;;;;0.10;0.10;;;24.00;43.00;;;;;;4990777;28;20783;-50
2024/03/14 09:00:56;;;;;;;0.00;0.00;;;23.90;42.90;;;;;;4990228;28;20603;-51
2024/03/14 09:03:25;;;;;;;0.10;0.10;;;23.90;43.00;;;;;;4982419;28;20229;-56
2024/03/14 09:05:55;;;;;;;0.00;0.00;;;23.90;42.90;;;;;;4973371;28;20252;-55
2024/03/14 09:08:25;;;;;;;0.10;0.10;;;23.80;42.90;;;;;;4988982;28;20703;-52
2024/03/14 09:10:55;;;;;;;0.00;0.00;;;23.80;42.90;;;;;;4990471;28;20295;-53
2024/03/14 09:13:25;;;;;;;0.00;0.00;;;23.80;42.80;;;;;;4990937;28;20236;-54
2024/03/14 09:15:55;;;;;;;0.00;0.00;;;23.80;42.80;;;;;;4989195;28;20204;-55
2024/03/14 09:18:25;;;;;;;0.00;0.00;;;23.80;42.80;;;;;;4990753;28;20213;-56
2024/03/14 09:20:55;;;;;;;0.00;0.00;;;23.70;42.70;;;;;;4986304;28;20213;-55
2024/03/14 09:23:25;;;;;;;0.00;0.00;;;23.70;42.70;;;;;;4970497;28;20261;-52
2024/03/14 09:25:55;;;;;;;0.00;0.00;;;23.70;42.70;;;;;;4987751;28;20231;-53
2024/03/14 09:28:25;;;;;;;0.00;0.00;;;23.70;42.70;;;;;;4989365;28;20946;-54
2024/03/14 09:30:59;;;;;;;0.00;0.00;;;23.60;42.70;;;;;;4990356;28;20251;-55
2024/03/14 09:33:30;;;;;;;0.00;0.00;;;23.60;42.70;;;;;;4990890;28;20270;-49
2024/03/14 09:36:00;;;;;;;0.00;0.00;;;23.60;42.80;;;;;;4990938;28;20209;-53
2024/03/14 09:38:29;;;;;;;0.10;0.10;;;23.60;42.80;;;;;;4989548;28;20205;-53
2024/03/14 09:40:59;;;;;;;0.00;0.00;;;23.50;42.80;;;;;;4990664;28;20310;-49
2024/03/14 09:43:29;;;;;;;0.10;0.10;;;23.50;42.80;;;;;;4991015;28;20592;-50
2024/03/14 09:46:00;;;;;;;0.10;0.10;;;23.50;42.80;;;;;;4988908;28;20220;-51
2024/03/14 09:48:30;;;;;;;0.00;0.00;;;23.50;42.80;;;;;;4990326;28;20417;-51
2024/03/14 09:50:59;;;;;;;0.08;0.08;;;23.50;42.80;;;;;;4990630;28;20256;-51
2024/03/14 09:53:30;;;;;;;0.00;0.00;;;23.40;42.80;;;;;;4990522;28;20567;-51
2024/03/14 09:56:00;;;;;;;0.00;0.00;;;23.40;42.80;;;;;;4990227;28;20263;-53
2024/03/14 09:58:30;;;;;;;0.10;0.10;;;23.40;42.80;;;;;;4989446;28;20529;-55
2024/03/14 10:01:03;;;;;;;0.00;0.00;;;23.40;42.80;;;;;;4989439;28;20279;-49
2024/03/14 10:03:33;;;;;;;0.00;0.00;;;23.30;42.70;;;;;;4990715;28;20314;-52
2024/03/14 10:06:15;;;;;;;0.00;0.00;;;23.30;42.80;;;;;;4986692;28;20209;-54
2024/03/14 10:08:48;;;;;;;0.00;0.00;;;23.30;42.80;;;;;;4980754;28;20248;-52
2024/03/14 10:11:18;;;;;;;0.00;0.00;;;23.30;42.80;;;;;;4989798;28;20219;-53
2024/03/14 10:13:49;;;;;;;0.00;0.00;;;23.20;42.80;;;;;;4988890;28;20225;-52
2024/03/14 10:16:21;;;;;;;0.00;0.00;;;23.20;42.80;;;;;;4991068;28;20222;-49
2024/03/14 10:18:51;;;;;;;0.00;0.00;;;23.20;42.80;;;;;;4989745;28;20661;-53
2024/03/14 10:21:20;;;;;;;0.00;0.00;;;23.10;42.80;;;;;;4990236;28;20243;-49
2024/03/14 10:23:50;;;;;;;0.10;0.10;;;23.10;42.80;;;;;;4989308;28;20229;-52
2024/03/14 10:26:20;;;;;;;0.03;0.03;;;23.10;42.80;;;;;;4990262;28;20216;-49
2024/03/14 10:28:50;;;;;;;0.00;0.00;;;23.10;42.80;;;;;;4990804;28;20204;-51
2024/03/14 10:31:21;;;;;;;0.00;0.00;;;23.10;42.90;;;;;;4989616;28;20216;-49
2024/03/14 10:33:50;;;;;;;0.00;0.00;;;23.00;42.80;;;;;;4990639;28;20209;-55
2024/03/14 10:36:21;;;;;;;0.10;0.10;;;23.00;42.80;;;;;;4989990;28;20201;-52
2024/03/14 10:38:51;;;;;;;0.00;0.00;;;23.00;42.80;;;;;;4989465;28;20641;-52
2024/03/14 10:41:21;;;;;;;0.00;0.00;;;23.00;42.80;;;;;;4978224;28;20283;-54
2024/03/14 10:43:53;;;;;;;0.10;0.10;;;23.00;42.90;;;;;;4973634;28;20228;-51
2024/03/14 10:46:24;;;;;;;0.00;0.00;;;22.90;42.80;;;;;;4974739;28;20205;-53
2024/03/14 10:48:53;;;;;;;0.00;0.00;;;22.90;42.80;;;;;;4974215;28;20296;-52
2024/03/14 10:51:23;;;;;;;0.00;0.00;;;22.90;42.80;;;;;;4982610;28;20736;-51
2024/03/14 10:53:55;;;;;;;0.10;0.10;;;22.90;42.80;;;;;;4992631;28;20296;-51
2024/03/14 10:56:25;;;;;;;0.10;0.10;;;22.90;42.80;;;;;;4993830;28;20263;-50
2024/03/14 10:58:55;;;;;;;0.00;0.00;;;22.80;42.80;;;;;;4993477;28;20251;-51
2024/03/14 11:01:25;;;;;;;0.00;0.00;;;22.80;42.90;;;;;;4993618;28;20225;-50
2024/03/14 11:03:55;;;;;;;0.00;0.00;;;22.80;42.90;;;;;;4993048;28;20229;-56
2024/03/14 11:06:25;;;;;;;0.00;0.00;;;22.80;42.90;;;;;;4993226;28;20204;-50
2024/03/14 11:08:54;;;;;;;0.00;0.00;;;22.70;42.80;;;;;;4991490;28;20197;-54
2024/03/14 11:11:24;;;;;;;0.10;0.10;;;22.70;42.80;;;;;;4992512;28;20303;-52
2024/03/14 11:13:54;;;;;;;0.10;0.10;;;22.70;42.90;;;;;;4993502;28;20205;-52
2024/03/14 11:16:23;;;;;;;0.00;0.00;;;22.60;42.80;;;;;;4993090;28;20211;-53
2024/03/14 11:18:55;;;;;;;0.00;0.00;;;22.60;42.90;;;;;;4992367;28;20212;-54
2024/03/14 11:21:25;;;;;;;0.00;0.00;;;22.60;42.90;;;;;;4992589;28;20221;-53
2024/03/14 11:23:56;;;;;;;0.00;0.00;;;22.60;42.90;;;;;;4992721;28;20302;-56
2024/03/14 11:26:26;;;;;;;0.00;0.00;;;22.60;42.90;;;;;;4988938;28;20206;-50
2024/03/14 11:29:02;;;;;;;0.00;0.00;;;22.50;42.90;;;;;;4973442;28;20212;-54
2024/03/14 11:31:40;;;;;;;0.00;0.00;;;22.50;42.90;;;;;;4996218;28;20252;-49
2024/03/14 11:34:16;;;;;;;0.00;0.00;;;22.50;42.90;;;;;;4996823;28;20284;-53
2024/03/14 11:36:46;;;;;;;0.10;0.10;;;22.50;42.80;;;;;;4997071;28;20575;-51
2024/03/14 11:39:17;;;;;;;0.10;0.10;;;22.50;42.80;;;;;;4996513;28;20197;-50
2024/03/14 11:41:46;;;;;;;0.00;0.00;;;22.50;42.80;;;;;;4996433;28;20279;-48
2024/03/14 11:44:17;;;;;;;0.10;0.10;;;22.50;42.90;;;;;;4996336;28;20221;-50
2024/03/14 11:46:51;;;;;;;0.10;0.10;;;22.40;42.80;;;;;;4996412;28;20541;-53
2024/03/14 11:49:23;;;;;;;0.10;0.10;;;22.40;42.80;;;;;;4996823;28;20192;-50
2024/03/14 11:51:52;;;;;;;0.00;0.00;;;22.40;42.90;;;;;;4995859;28;20220;-48
2024/03/14 11:54:22;;;;;;;0.00;0.00;;;22.30;42.90;;;;;;4995797;28;20220;-49
2024/03/14 11:56:52;;;;;;;0.00;0.00;;;22.30;42.90;;;;;;4995988;28;20197;-48
2024/03/14 11:59:24;;;;;;;0.05;0.05;;;22.30;42.90;;;;;;4996148;28;20304;-48
2024/03/14 12:01:55;;;;;;;0.03;0.03;;;22.30;43.00;;;;;;4995818;28;20248;-50
2024/03/14 12:04:25;;;;;;;0.00;0.00;;;22.30;43.00;;;;;;4995704;28;20315;-49
2024/03/14 12:06:55;;;;;;;0.10;0.10;;;22.20;42.90;;;;;;4995330;28;20201;-48
2024/03/14 12:09:30;;;;;;;0.10;0.10;;;22.20;42.90;;;;;;4991944;28;20201;-51
2024/03/14 12:12:00;;;;;;;0.10;0.10;;;22.20;42.90;;;;;;4977144;28;20311;-51
2024/03/14 12:14:33;;;;;;;0.10;0.10;;;22.20;43.00;;;;;;4985183;28;20189;-53
2024/03/14 12:17:03;;;;;;;0.10;0.10;;;22.20;43.00;;;;;;4995792;28;20199;-48
2024/03/14 12:19:33;;;;;;;0.00;0.00;;;22.20;43.00;;;;;;4992940;28;20276;-53
2024/03/14 12:22:02;;;;;;;0.03;0.03;;;22.10;42.90;;;;;;4995023;28;20275;-49
2024/03/14 12:24:32;;;;;;;0.00;0.00;;;22.10;43.00;;;;;;4992697;28;20229;-50
2024/03/14 12:27:03;;;;;;;0.00;0.00;;;22.10;43.00;;;;;;5007516;23;20228;-45
2024/03/14 12:29:32;;;;;;;0.05;0.05;;;22.10;43.00;;;;;;5007901;28;20197;-53
2024/03/14 12:32:03;;;;;;;0.00;0.00;;;22.10;43.00;;;;;;5001948;28;20271;-49
2024/03/14 12:34:33;;;;;;;0.00;0.00;;;22.10;43.00;;;;;;4986224;28;20538;-52
2024/03/14 12:37:02;;;;;;;0.00;0.00;;;22.00;43.00;;;;;;4991430;28;20204;-52
2024/03/14 12:39:32;;;;;;;0.00;0.00;;;22.00;43.00;;;;;;4988715;28;20204;-46
2024/03/14 12:42:02;;;;;;;0.10;0.10;;;22.00;43.00;;;;;;4989358;28;20226;-48
2024/03/14 12:44:31;;;;;;;0.00;0.00;;;22.00;43.00;;;;;;5012940;28;20264;-46
2024/03/14 12:47:01;;;;;;;0.00;0.00;;;21.90;43.00;;;;;;4984593;28;20196;-51
2024/03/14 12:49:31;;;;;;;0.10;0.10;;;21.90;43.00;;;;;;4989863;28;20268;-49
2024/03/14 12:52:02;;;;;;;0.10;0.10;;;21.90;43.00;;;;;;4991136;28;21041;-48
2024/03/14 12:54:38;;;;;;;0.10;0.10;;;21.90;43.00;;;;;;4990586;28;20684;-53
2024/03/14 12:57:08;;;;;;;0.10;0.10;;;21.90;43.00;;;;;;4984376;28;20189;-51
2024/03/14 12:59:37;;;;;;;0.03;0.03;;;21.90;43.00;;;;;;4984681;28;20215;-50
2024/03/14 13:02:08;;;;;;;0.10;0.10;;;21.90;43.00;;;;;;4992840;28;20267;-48
2024/03/14 13:04:42;;;;;;;0.00;0.00;;;21.80;42.90;;;;;;4994908;28;20224;-51
2024/03/14 13:07:18;;;;;;;0.00;0.00;;;21.90;43.00;;;;;;4978600;28;20197;-48